createdAt,value
2019-03-02T00:01:48.733Z,16.67
2019-03-02T00:05:07.328Z,11.70
2019-03-02T00:08:26.329Z,11.07
2019-03-02T00:11:45.259Z,12.13
2019-03-02T00:15:04.363Z,11.17
2019-03-02T00:18:22.577Z,8.53
2019-03-02T00:21:40.962Z,15.33
2019-03-02T00:24:59.900Z,11.80
2019-03-02T00:28:18.985Z,15.23
2019-03-02T00:31:38.040Z,8.00
2019-03-02T00:34:55.048Z,14.57
2019-03-02T00:38:20.972Z,10.90
2019-03-02T00:41:46.920Z,10.87
2019-03-02T00:45:14.174Z,10.07
2019-03-02T00:48:58.322Z,10.30
2019-03-02T00:52:20.490Z,13.97
2019-03-02T00:55:37.122Z,11.80
2019-03-02T00:58:55.351Z,7.83
2019-03-02T01:02:12.602Z,11.77
2019-03-02T01:05:38.957Z,11.07
2019-03-02T01:09:08.074Z,11.73
2019-03-02T01:12:33.757Z,13.83
2019-03-02T01:15:59.757Z,12.37
2019-03-02T01:19:25.780Z,10.67
2019-03-02T01:22:52.724Z,14.33
2019-03-02T01:26:37.076Z,15.60
2019-03-02T01:30:03.057Z,10.97
2019-03-02T01:33:29.361Z,14.43
2019-03-02T01:37:17.239Z,14.37
2019-03-02T01:40:46.031Z,14.03
2019-03-02T01:44:30.917Z,12.37
2019-03-02T01:47:56.953Z,16.03
2019-03-02T01:51:15.609Z,13.83
2019-03-02T01:54:34.619Z,15.03
2019-03-02T01:57:53.229Z,12.07
2019-03-02T02:01:12.036Z,12.53
2019-03-02T02:04:29.014Z,10.93
2019-03-02T02:07:55.191Z,16.83
2019-03-02T02:11:40.748Z,17.20
2019-03-02T02:15:07.749Z,16.13
2019-03-02T02:18:33.756Z,12.77
2019-03-02T02:22:02.131Z,17.30
2019-03-02T02:28:48.952Z,14.97
2019-03-02T02:32:19.257Z,16.50
2019-03-02T02:36:03.175Z,14.77
2019-03-02T02:39:33.384Z,19.50
2019-03-02T02:43:20.212Z,18.83
2019-03-02T02:46:59.844Z,23.17
2019-03-02T02:50:28.388Z,13.37
2019-03-02T02:53:40.152Z,16.10
2019-03-02T02:57:00.578Z,16.43
2019-03-02T03:00:18.870Z,16.60
2019-03-02T03:03:37.812Z,15.87
2019-03-02T03:06:56.222Z,14.97
2019-03-02T03:14:19.857Z,15.67
2019-03-02T03:17:39.453Z,23.60
2019-03-02T03:20:56.535Z,17.27
2019-03-02T03:24:22.549Z,16.33
2019-03-02T03:27:52.002Z,13.93
2019-03-02T03:31:34.094Z,18.03
2019-03-02T03:35:15.742Z,15.07
2019-03-02T03:38:47.591Z,17.57
2019-03-02T03:42:22.309Z,13.93
2019-03-02T03:45:59.263Z,19.47
2019-03-02T03:53:14.387Z,17.53
2019-03-02T03:56:42.474Z,14.97
2019-03-02T04:00:25.442Z,14.93
2019-03-02T04:03:52.953Z,18.47
2019-03-02T04:07:36.773Z,16.33
2019-03-02T04:11:04.513Z,16.10
2019-03-02T04:14:47.929Z,13.17
2019-03-02T04:18:32.938Z,17.97
2019-03-02T04:22:01.914Z,15.30
2019-03-02T04:25:44.012Z,17.73
2019-03-02T04:29:11.734Z,17.67
2019-03-02T04:32:55.206Z,15.27
2019-03-02T04:36:21.284Z,15.37
2019-03-02T04:39:50.039Z,14.40
2019-03-02T04:47:17.442Z,14.80
2019-03-02T04:50:36.542Z,18.27
2019-03-02T04:53:58.078Z,13.33
2019-03-02T04:57:15.015Z,12.30
2019-03-02T05:00:33.174Z,17.27
2019-03-02T05:03:53.781Z,14.07
2019-03-02T05:07:11.937Z,16.00
2019-03-02T05:10:30.245Z,12.63
2019-03-02T05:13:49.309Z,10.60
2019-03-02T05:17:08.480Z,14.97
2019-03-02T05:20:26.717Z,16.83
2019-03-02T05:23:45.585Z,13.33
2019-03-02T05:27:04.278Z,14.20
2019-03-02T05:30:23.169Z,19.07
2019-03-02T05:33:41.420Z,25.17
2019-03-02T05:36:59.700Z,18.20
2019-03-02T05:40:19.745Z,15.07
2019-03-02T05:43:37.813Z,22.87
2019-03-02T05:46:57.807Z,18.10
2019-03-02T05:50:16.012Z,15.63
2019-03-02T05:53:34.368Z,19.13
2019-03-02T05:56:52.660Z,15.13
2019-03-02T06:00:11.360Z,16.93
2019-03-02T06:03:28.284Z,19.87
2019-03-02T06:10:42.833Z,18.43
2019-03-02T06:17:53.606Z,19.73
2019-03-02T06:25:08.633Z,19.80
2019-03-02T06:28:15.439Z,23.00
2019-03-02T06:31:22.359Z,20.80
2019-03-02T06:34:32.006Z,21.47
2019-03-02T06:37:38.809Z,22.23
2019-03-02T06:40:45.599Z,15.90
2019-03-02T06:43:55.026Z,15.60
2019-03-02T06:47:00.793Z,18.37
2019-03-02T06:50:09.021Z,21.57
2019-03-02T06:53:15.876Z,17.03
2019-03-02T06:56:22.684Z,21.77
2019-03-02T06:59:29.545Z,21.00
2019-03-02T07:02:36.337Z,18.77
2019-03-02T07:05:43.194Z,20.13
2019-03-02T07:08:49.980Z,20.13
2019-03-02T07:11:56.795Z,19.37
2019-03-02T07:15:05.078Z,18.10
2019-03-02T07:18:20.785Z,18.33
2019-03-02T07:21:27.577Z,20.50
2019-03-02T07:24:34.477Z,20.07
2019-03-02T07:27:41.273Z,18.13
2019-03-02T07:30:48.066Z,19.93
2019-03-02T07:33:54.876Z,20.13
2019-03-02T07:37:01.737Z,22.83
2019-03-02T07:40:10.109Z,18.17
2019-03-02T07:43:17.107Z,18.60
2019-03-02T07:46:23.918Z,20.17
2019-03-02T07:49:30.758Z,21.47
2019-03-02T07:52:37.600Z,16.47
2019-03-02T07:55:44.453Z,22.20
2019-03-02T07:58:51.824Z,20.77
2019-03-02T08:01:59.849Z,27.07
2019-03-02T08:05:10.899Z,19.00
2019-03-02T08:08:15.998Z,19.13
2019-03-02T08:11:22.854Z,22.53
2019-03-02T08:14:30.292Z,20.80
2019-03-02T08:17:36.986Z,20.90
2019-03-02T08:20:44.109Z,20.77
2019-03-02T08:23:50.903Z,20.33
2019-03-02T08:26:57.788Z,20.83
2019-03-02T08:30:05.889Z,23.27
2019-03-02T08:33:12.710Z,20.97
2019-03-02T08:36:19.533Z,23.63
2019-03-02T08:39:26.434Z,21.20
2019-03-02T08:42:33.230Z,21.77
2019-03-02T08:45:40.301Z,25.43
2019-03-02T08:48:47.483Z,25.33
2019-03-02T08:51:54.634Z,27.57
2019-03-02T08:55:01.661Z,39.07
2019-03-02T08:58:08.503Z,27.63
2019-03-02T09:01:18.244Z,30.30
2019-03-02T09:04:25.039Z,31.37
2019-03-02T09:07:31.880Z,31.17
2019-03-02T09:10:38.700Z,26.67
2019-03-02T09:13:45.543Z,29.03
2019-03-02T09:16:52.382Z,32.67
2019-03-02T09:19:59.599Z,31.53
2019-03-02T09:23:06.979Z,26.70
2019-03-02T09:26:14.992Z,31.77
2019-03-02T09:29:21.933Z,33.73
2019-03-02T09:32:29.105Z,33.03
2019-03-02T09:35:35.957Z,28.03
2019-03-02T09:38:42.846Z,32.40
2019-03-02T09:41:49.653Z,31.87
2019-03-02T09:44:56.444Z,30.83
2019-03-02T09:48:03.514Z,31.60
2019-03-02T09:51:10.468Z,29.53
2019-03-02T09:54:17.314Z,26.80
2019-03-02T09:57:24.138Z,28.27
2019-03-02T10:00:31.430Z,31.40
2019-03-02T10:03:38.236Z,26.33
2019-03-02T10:06:45.078Z,27.57
2019-03-02T10:09:52.057Z,26.73
2019-03-02T10:12:59.138Z,20.67
2019-03-02T10:16:06.276Z,27.87
2019-03-02T10:19:13.475Z,26.93
2019-03-02T10:22:23.386Z,26.07
2019-03-02T10:25:31.906Z,23.43
2019-03-02T10:28:38.499Z,21.80
2019-03-02T10:31:46.178Z,21.60
2019-03-02T10:34:53.870Z,19.13
2019-03-02T10:38:00.756Z,21.80
2019-03-02T10:41:07.629Z,20.50
2019-03-02T10:44:17.748Z,20.10
2019-03-02T10:47:24.199Z,18.77
2019-03-02T10:50:31.478Z,18.77
2019-03-02T10:53:38.601Z,18.10
2019-03-02T10:56:45.952Z,18.70
2019-03-02T10:59:53.230Z,15.27
2019-03-02T11:03:00.111Z,16.47
2019-03-02T11:06:25.850Z,16.87
2019-03-02T11:09:54.439Z,15.90
2019-03-02T11:13:20.749Z,16.20
2019-03-02T11:16:50.464Z,15.90
2019-03-02T11:20:24.419Z,15.10
2019-03-02T11:23:39.624Z,16.73
2019-03-02T11:26:55.575Z,17.57
2019-03-02T11:30:19.904Z,17.37
2019-03-02T11:33:37.796Z,17.73
2019-03-02T11:37:01.962Z,15.57
2019-03-02T11:40:20.146Z,16.83
2019-03-02T11:43:53.226Z,16.73
2019-03-02T11:47:17.652Z,16.70
2019-03-02T11:50:30.206Z,17.87
2019-03-02T11:53:55.934Z,15.13
2019-03-02T11:57:09.099Z,15.83
2019-03-02T12:00:44.112Z,19.93
2019-03-02T12:04:22.061Z,16.17
2019-03-02T12:08:02.723Z,15.43
2019-03-02T12:11:47.287Z,15.37
2019-03-02T12:15:05.955Z,20.13
2019-03-02T12:18:40.890Z,15.57
2019-03-02T12:22:11.278Z,16.10
2019-03-02T12:25:31.120Z,16.00
2019-03-02T12:29:01.419Z,17.40
2019-03-02T12:32:29.920Z,19.47
2019-03-02T12:35:49.069Z,18.43
2019-03-02T12:39:07.302Z,17.53
2019-03-02T12:42:21.347Z,14.50
2019-03-02T12:45:47.095Z,19.73
2019-03-02T12:49:12.167Z,16.23
2019-03-02T12:52:28.369Z,18.57
2019-03-02T12:55:56.948Z,14.73
2019-03-02T12:59:15.632Z,16.37
2019-03-02T13:02:47.996Z,17.40
2019-03-02T13:06:04.752Z,17.30
2019-03-02T13:09:41.003Z,16.20
2019-03-02T13:13:00.416Z,16.40
2019-03-02T13:16:25.019Z,16.73
2019-03-02T13:19:53.903Z,19.57
2019-03-02T13:23:19.083Z,24.07
2019-03-02T13:26:45.650Z,19.90
2019-03-02T13:30:12.597Z,17.23
2019-03-02T13:33:35.769Z,18.17
2019-03-02T13:36:59.259Z,20.83
2019-03-02T13:40:26.293Z,20.20
2019-03-02T13:43:43.513Z,21.17
2019-03-02T13:47:10.593Z,22.27
2019-03-02T13:50:35.959Z,20.23
2019-03-02T13:53:59.191Z,16.63
2019-03-02T13:57:19.098Z,21.17
2019-03-02T14:00:33.969Z,20.07
2019-03-02T14:03:51.111Z,22.20
2019-03-02T14:07:13.414Z,18.63
2019-03-02T14:10:39.243Z,18.40
2019-03-02T14:14:09.350Z,20.60
2019-03-02T14:17:38.359Z,19.13
2019-03-02T14:21:02.621Z,27.97
2019-03-02T14:24:26.105Z,17.83
2019-03-02T14:27:54.075Z,23.23
2019-03-02T14:31:22.426Z,20.87
2019-03-02T14:34:43.654Z,23.33
2019-03-02T14:37:56.949Z,19.97
2019-03-02T14:41:11.947Z,23.07
2019-03-02T14:44:44.251Z,22.20
2019-03-02T14:48:05.292Z,21.40
2019-03-02T14:51:31.135Z,21.87
2019-03-02T14:54:56.978Z,20.07
2019-03-02T14:58:21.300Z,21.07
2019-03-02T15:01:50.164Z,16.23
2019-03-02T15:05:05.016Z,18.33
2019-03-02T15:08:31.582Z,20.33
2019-03-02T15:11:46.854Z,20.63
2019-03-02T15:15:04.366Z,27.20
2019-03-02T15:18:23.954Z,20.23
2019-03-02T15:21:48.670Z,19.50
2019-03-02T15:25:13.544Z,22.60
2019-03-02T15:28:39.377Z,21.67
2019-03-02T15:31:51.584Z,25.77
2019-03-02T15:35:13.646Z,22.93
2019-03-02T15:38:57.526Z,24.83
2019-03-02T15:42:21.401Z,23.27
2019-03-02T15:46:02.976Z,26.23
2019-03-02T15:49:28.826Z,24.37
2019-03-02T15:52:43.977Z,26.37
2019-03-02T15:56:09.439Z,27.27
2019-03-02T15:59:27.372Z,23.17
2019-03-02T16:02:48.622Z,25.00
2019-03-02T16:06:14.419Z,25.87
2019-03-02T16:09:55.335Z,25.03
2019-03-02T16:13:24.498Z,27.37
2019-03-02T16:16:53.380Z,25.97
2019-03-02T16:20:18.694Z,25.17
2019-03-02T16:23:47.232Z,22.37
2019-03-02T16:27:07.265Z,21.53
2019-03-02T16:30:21.131Z,23.90
2019-03-02T16:33:45.567Z,28.27
2019-03-02T16:37:20.931Z,24.70
2019-03-02T16:40:48.802Z,24.07
2019-03-02T16:44:12.971Z,24.50
2019-03-02T16:47:33.943Z,24.93
2019-03-02T16:50:58.074Z,25.37
2019-03-02T16:54:21.363Z,23.93
2019-03-02T16:57:49.294Z,27.37
2019-03-02T17:01:24.767Z,24.10
2019-03-02T17:04:51.296Z,24.90
2019-03-02T17:08:31.222Z,27.63
2019-03-02T17:11:57.870Z,33.07
2019-03-02T17:15:27.586Z,32.90
2019-03-02T17:18:51.974Z,25.57
2019-03-02T17:22:13.243Z,28.47
2019-03-02T17:25:48.044Z,25.97
2019-03-02T17:29:26.043Z,21.57
2019-03-02T17:32:51.020Z,28.93
2019-03-02T17:36:33.714Z,28.23
2019-03-02T17:40:01.441Z,27.03
2019-03-02T17:43:30.006Z,31.53
2019-03-02T17:47:06.239Z,29.63
2019-03-02T17:50:31.834Z,33.63
2019-03-02T17:53:45.549Z,28.53
2019-03-02T17:57:13.940Z,26.67
2019-03-02T18:00:28.929Z,27.73
2019-03-02T18:03:51.814Z,22.57
2019-03-02T18:07:17.622Z,31.23
2019-03-02T18:10:37.688Z,27.37
2019-03-02T18:13:55.518Z,26.60
2019-03-02T18:17:23.713Z,26.23
2019-03-02T18:20:32.348Z,28.30
2019-03-02T18:23:41.205Z,25.63
2019-03-02T18:26:48.593Z,28.00
2019-03-02T18:29:56.358Z,26.80
2019-03-02T18:33:11.159Z,23.17
2019-03-02T18:36:19.833Z,27.43
2019-03-02T18:39:26.782Z,27.63
2019-03-02T18:42:34.994Z,30.07
2019-03-02T18:49:51.478Z,30.33
2019-03-02T18:53:02.324Z,25.63
2019-03-02T18:56:11.588Z,22.63
2019-03-02T18:59:18.412Z,31.67
2019-03-02T19:02:26.326Z,27.60
2019-03-02T19:05:33.127Z,25.53
2019-03-02T19:08:40.103Z,30.93
2019-03-02T19:11:47.005Z,30.57
2019-03-02T19:14:57.737Z,29.23
2019-03-02T19:18:02.392Z,26.30
2019-03-02T19:21:10.221Z,25.27
2019-03-02T19:24:17.072Z,29.57
2019-03-02T19:27:24.033Z,24.07
2019-03-02T19:30:32.063Z,21.57
2019-03-02T19:33:38.962Z,30.40
2019-03-02T19:36:45.912Z,27.73
2019-03-02T19:39:52.859Z,27.60
2019-03-02T19:42:59.883Z,36.23
2019-03-02T19:46:06.701Z,31.73
2019-03-02T19:49:14.471Z,28.57
2019-03-02T19:52:21.320Z,30.73
2019-03-02T19:55:28.137Z,30.67
2019-03-02T19:58:34.965Z,26.63
2019-03-02T20:01:48.403Z,24.57
2019-03-02T20:04:55.215Z,25.20
2019-03-02T20:08:02.025Z,30.27
2019-03-02T20:11:08.860Z,25.33
2019-03-02T20:14:15.839Z,23.63
2019-03-02T20:17:22.675Z,23.67
2019-03-02T20:20:29.599Z,21.00
2019-03-02T20:23:37.350Z,23.17
2019-03-02T20:26:44.733Z,18.90
2019-03-02T20:29:51.637Z,22.40
2019-03-02T20:33:01.356Z,25.87
2019-03-02T20:36:08.244Z,24.23
2019-03-02T20:39:15.459Z,20.27
2019-03-02T20:42:22.672Z,25.93
2019-03-02T20:45:29.565Z,19.67
2019-03-02T20:48:37.024Z,23.80
2019-03-02T20:51:43.846Z,21.13
2019-03-02T20:54:50.672Z,21.00
2019-03-02T20:57:57.470Z,22.13
2019-03-02T21:01:04.283Z,23.30
2019-03-02T21:04:11.650Z,22.00
2019-03-02T21:07:19.507Z,20.70
2019-03-02T21:10:26.499Z,22.33
2019-03-02T21:13:33.354Z,18.47
2019-03-02T21:16:40.239Z,22.33
2019-03-02T21:19:47.068Z,20.67
2019-03-02T21:22:53.926Z,17.13
2019-03-02T21:26:01.075Z,16.90
2019-03-02T21:29:07.876Z,20.93
2019-03-02T21:32:15.416Z,17.00
2019-03-02T21:35:22.275Z,15.23
2019-03-02T21:38:29.987Z,17.77
2019-03-02T21:41:38.840Z,14.83
2019-03-02T21:45:01.454Z,16.83
2019-03-02T21:48:10.091Z,14.43
2019-03-02T21:51:21.439Z,15.57
2019-03-02T21:54:31.038Z,12.70
2019-03-02T21:57:42.439Z,13.50
2019-03-02T22:00:49.325Z,14.33
2019-03-02T22:03:56.159Z,12.37
2019-03-02T22:07:03.910Z,11.20
2019-03-02T22:10:13.325Z,13.20
2019-03-02T22:13:20.101Z,10.27
2019-03-02T22:16:26.935Z,14.53
2019-03-02T22:19:33.769Z,11.53
2019-03-02T22:22:40.593Z,16.27
2019-03-02T22:25:48.636Z,10.63
2019-03-02T22:28:55.427Z,8.60
2019-03-02T22:32:02.244Z,10.87
2019-03-02T22:35:09.138Z,10.93
2019-03-02T22:38:16.055Z,9.90
2019-03-02T22:41:22.873Z,7.57
2019-03-02T22:44:29.677Z,13.13
2019-03-02T22:47:36.476Z,13.37
2019-03-02T22:50:44.070Z,8.97
2019-03-02T22:53:50.829Z,10.83
2019-03-02T22:56:57.686Z,9.43
2019-03-02T23:01:01.247Z,6.53
2019-03-02T23:04:08.186Z,6.27
2019-03-02T23:07:15.057Z,6.47
2019-03-02T23:10:28.895Z,6.10
2019-03-02T23:13:35.687Z,6.07
2019-03-02T23:16:42.535Z,6.33
2019-03-02T23:19:49.844Z,5.17
2019-03-02T23:22:57.378Z,6.33
2019-03-02T23:26:04.146Z,4.80
2019-03-02T23:29:10.928Z,5.53
2019-03-02T23:32:17.739Z,4.93
2019-03-02T23:35:24.552Z,8.53
2019-03-02T23:38:31.401Z,5.27
2019-03-02T23:41:39.443Z,5.53
2019-03-02T23:44:46.240Z,5.83
2019-03-02T23:47:53.705Z,6.00
2019-03-02T23:51:00.960Z,7.00
2019-03-02T23:54:07.803Z,6.13
2019-03-02T23:57:14.689Z,5.37
